createdAt,value
2022-09-02T00:01:38.362Z,101808.13
2022-09-02T00:04:04.593Z,101812.69
2022-09-02T00:06:30.859Z,101812.47
2022-09-02T00:08:57.128Z,101806.94
2022-09-02T00:11:23.478Z,101813.09
2022-09-02T00:13:49.786Z,101814.75
2022-09-02T00:16:16.049Z,101817.13
2022-09-02T00:18:45.777Z,101811.72
2022-09-02T00:21:12.248Z,101812.50
2022-09-02T00:23:38.491Z,101809.78
2022-09-02T00:26:04.739Z,101808.91
2022-09-02T00:28:30.993Z,101803.66
2022-09-02T00:30:57.210Z,101799.88
2022-09-02T00:33:23.550Z,101813.47
2022-09-02T00:35:49.774Z,101804.44
2022-09-02T00:38:15.999Z,101801.63
2022-09-02T00:40:42.307Z,101802.50
2022-09-02T00:43:10.440Z,101798.06
2022-09-02T00:45:36.717Z,101799.78
2022-09-02T00:48:02.967Z,101801.41
2022-09-02T00:50:29.189Z,101803.16
2022-09-02T00:52:55.830Z,101794.91
2022-09-02T00:55:22.061Z,101801.97
2022-09-02T00:57:48.440Z,101791.97
2022-09-02T01:00:14.698Z,101792.84
2022-09-02T01:02:40.937Z,101798.25
2022-09-02T01:05:07.149Z,101802.72
2022-09-02T01:07:33.516Z,101798.25
2022-09-02T01:09:59.752Z,101801.75
2022-09-02T01:12:25.993Z,101794.47
2022-09-02T01:14:52.216Z,101793.59
2022-09-02T01:17:18.453Z,101791.00
2022-09-02T01:19:44.678Z,101793.84
2022-09-02T01:22:10.910Z,101789.47
2022-09-02T01:24:37.129Z,101787.72
2022-09-02T01:27:03.366Z,101782.19
2022-09-02T01:29:29.582Z,101793.03
2022-09-02T01:31:55.895Z,101787.72
2022-09-02T01:34:22.178Z,101781.44
2022-09-02T01:36:48.420Z,101778.72
2022-09-02T01:39:14.631Z,101776.25
2022-09-02T01:41:40.863Z,101772.53
2022-09-02T01:44:07.098Z,101774.50
2022-09-02T01:46:33.460Z,101779.13
2022-09-02T01:48:59.732Z,101779.25
2022-09-02T01:51:25.997Z,101777.31
2022-09-02T01:53:52.212Z,101784.56
2022-09-02T01:56:18.458Z,101781.09
2022-09-02T01:58:44.732Z,101773.81
2022-09-02T02:01:11.010Z,101776.63
2022-09-02T02:03:37.370Z,101776.63
2022-09-02T02:06:04.396Z,101775.78
2022-09-02T02:08:30.640Z,101772.22
2022-09-02T02:10:56.872Z,101773.28
2022-09-02T02:13:23.225Z,101774.38
2022-09-02T02:15:49.607Z,101770.97
2022-09-02T02:18:15.864Z,101770.34
2022-09-02T02:20:42.915Z,101772.59
2022-09-02T02:23:11.276Z,101769.25
2022-09-02T02:25:37.506Z,101771.38
2022-09-02T02:28:03.721Z,101774.44
2022-09-02T02:30:31.856Z,101768.25
2022-09-02T02:32:58.151Z,101760.19
2022-09-02T02:35:24.385Z,101763.91
2022-09-02T02:37:50.612Z,101765.94
2022-09-02T02:40:16.893Z,101765.28
2022-09-02T02:42:43.249Z,101759.19
2022-09-02T02:45:09.491Z,101763.97
2022-09-02T02:47:41.596Z,101757.88
2022-09-02T02:50:07.835Z,101762.53
2022-09-02T02:52:34.099Z,101761.75
2022-09-02T02:55:00.346Z,101765.47
2022-09-02T02:57:26.572Z,101765.75
2022-09-02T02:59:52.818Z,101759.69
2022-09-02T03:02:19.135Z,101761.59
2022-09-02T03:04:45.420Z,101763.56
2022-09-02T03:07:11.726Z,101763.78
2022-09-02T03:09:37.943Z,101762.13
2022-09-02T03:12:04.172Z,101757.66
2022-09-02T03:14:30.397Z,101759.53
2022-09-02T03:16:56.637Z,101755.28
2022-09-02T03:19:22.842Z,101756.44
2022-09-02T03:21:49.097Z,101764.69
2022-09-02T03:24:15.339Z,101762.94
2022-09-02T03:26:41.593Z,101761.41
2022-09-02T03:29:07.811Z,101753.53
2022-09-02T03:31:34.102Z,101758.31
2022-09-02T03:34:00.435Z,101755.81
2022-09-02T03:36:26.663Z,101752.41
2022-09-02T03:38:52.873Z,101754.47
2022-09-02T03:41:19.113Z,101760.94
2022-09-02T03:43:45.319Z,101754.75
2022-09-02T03:46:11.745Z,101753.13
2022-09-02T03:48:38.033Z,101754.94
2022-09-02T03:51:04.283Z,101747.03
2022-09-02T03:53:30.570Z,101755.16
2022-09-02T03:55:56.804Z,101753.41
2022-09-02T03:58:23.025Z,101752.53
2022-09-02T04:00:49.273Z,101747.13
2022-09-02T04:03:15.622Z,101750.78
2022-09-02T04:05:42.009Z,101755.25
2022-09-02T04:08:08.227Z,101754.38
2022-09-02T04:10:34.493Z,101753.50
2022-09-02T04:13:00.720Z,101756.41
2022-09-02T04:15:26.965Z,101756.50
2022-09-02T04:17:53.192Z,101761.94
2022-09-02T04:20:19.456Z,101762.03
2022-09-02T04:22:45.680Z,101769.41
2022-09-02T04:25:12.031Z,101770.47
2022-09-02T04:27:38.287Z,101771.31
2022-09-02T04:30:04.724Z,101766.00
2022-09-02T04:32:30.964Z,101771.50
2022-09-02T04:34:57.214Z,101772.38
2022-09-02T04:37:23.493Z,101766.97
2022-09-02T04:39:49.718Z,101757.88
2022-09-02T04:42:15.943Z,101758.66
2022-09-02T04:44:42.179Z,101762.22
2022-09-02T04:47:08.392Z,101759.53
2022-09-02T04:49:34.623Z,101762.03
2022-09-02T04:52:00.872Z,101760.97
2022-09-02T04:54:27.113Z,101761.63
2022-09-02T04:56:53.346Z,101761.53
2022-09-02T04:59:19.578Z,101769.47
2022-09-02T05:01:45.939Z,101768.28
2022-09-02T05:04:12.246Z,101771.88
2022-09-02T05:06:43.391Z,101768.09
2022-09-02T05:09:10.472Z,101766.16
2022-09-02T05:11:36.710Z,101766.84
2022-09-02T05:14:02.959Z,101767.50
2022-09-02T05:16:29.194Z,101774.56
2022-09-02T05:18:55.464Z,101773.50
2022-09-02T05:21:21.692Z,101777.75
2022-09-02T05:23:47.948Z,101782.00
2022-09-02T05:26:14.169Z,101783.53
2022-09-02T05:28:40.421Z,101780.63
2022-09-02T05:31:06.682Z,101783.16
2022-09-02T05:33:33.005Z,101781.09
2022-09-02T05:35:59.355Z,101789.03
2022-09-02T05:38:25.592Z,101779.94
2022-09-02T05:40:51.895Z,101783.28
2022-09-02T05:43:18.191Z,101777.69
2022-09-02T05:45:44.513Z,101779.19
2022-09-02T05:48:10.770Z,101777.91
2022-09-02T05:50:37.006Z,101782.06
2022-09-02T05:53:03.257Z,101784.59
2022-09-02T05:55:29.485Z,101779.81
2022-09-02T05:57:55.777Z,101780.56
2022-09-02T06:00:22.084Z,101775.72
2022-09-02T06:02:48.376Z,101783.63
2022-09-02T06:05:14.700Z,101786.81
2022-09-02T06:07:41.005Z,101785.63
2022-09-02T06:10:07.300Z,101779.97
2022-09-02T06:12:33.549Z,101781.53
2022-09-02T06:14:59.824Z,101781.09
2022-09-02T06:17:26.070Z,101783.38
2022-09-02T06:19:52.764Z,101786.41
2022-09-02T06:22:19.243Z,101785.00
2022-09-02T06:24:45.533Z,101781.84
2022-09-02T06:27:11.777Z,101785.88
2022-09-02T06:29:38.047Z,101781.97
2022-09-02T06:32:04.312Z,101774.72
2022-09-02T06:34:30.621Z,101778.50
2022-09-02T06:36:56.874Z,101777.53
2022-09-02T06:39:23.802Z,101772.75
2022-09-02T06:41:50.056Z,101776.88
2022-09-02T06:44:16.416Z,101783.59
2022-09-02T06:46:42.734Z,101771.34
2022-09-02T06:49:09.033Z,101777.13
2022-09-02T06:51:35.271Z,101780.03
2022-09-02T06:54:02.224Z,101769.34
2022-09-02T06:56:28.536Z,101770.63
2022-09-02T06:58:54.991Z,101771.72
2022-09-02T07:01:21.366Z,101771.19
2022-09-02T07:03:47.750Z,101772.00
2022-09-02T07:06:14.033Z,101779.00
2022-09-02T07:08:40.256Z,101780.69
2022-09-02T07:11:06.532Z,101771.69
2022-09-02T07:13:32.805Z,101774.72
2022-09-02T07:15:59.094Z,101778.94
2022-09-02T07:18:25.365Z,101782.94
2022-09-02T07:20:51.661Z,101776.38
2022-09-02T07:23:17.981Z,101782.44
2022-09-02T07:25:44.272Z,101781.09
2022-09-02T07:28:10.506Z,101778.38
2022-09-02T07:30:36.965Z,101780.97
2022-09-02T07:33:03.268Z,101777.97
2022-09-02T07:35:29.567Z,101781.84
2022-09-02T07:37:55.892Z,101776.34
2022-09-02T07:40:22.259Z,101785.75
2022-09-02T07:42:48.557Z,101780.28
2022-09-02T07:45:14.922Z,101772.50
2022-09-02T07:47:41.330Z,101774.66
2022-09-02T07:50:18.905Z,101778.75
2022-09-02T07:52:46.972Z,101783.59
2022-09-02T07:55:15.108Z,101784.97
2022-09-02T07:57:41.628Z,101781.63
2022-09-02T08:00:07.894Z,101778.19
2022-09-02T08:02:34.280Z,101775.47
2022-09-02T08:05:00.550Z,101776.47
2022-09-02T08:07:26.994Z,101773.75
2022-09-02T08:09:53.346Z,101779.94
2022-09-02T08:12:21.724Z,101774.72
2022-09-02T08:14:49.003Z,101774.75
2022-09-02T08:17:15.988Z,101776.56
2022-09-02T08:19:43.752Z,101778.56
2022-09-02T08:22:10.186Z,101767.47
2022-09-02T08:24:36.486Z,101769.28
2022-09-02T08:27:03.750Z,101775.38
2022-09-02T08:29:30.216Z,101774.00
2022-09-02T08:31:56.521Z,101777.66
2022-09-02T08:34:22.852Z,101770.97
2022-09-02T08:36:56.120Z,101771.28
2022-09-02T08:41:54.499Z,101769.69
2022-09-02T08:44:20.823Z,101770.03
2022-09-02T08:46:47.207Z,101763.31
2022-09-02T08:49:13.931Z,101770.53
2022-09-02T08:51:40.197Z,101768.00
2022-09-02T08:54:06.720Z,101771.94
2022-09-02T08:56:33.115Z,101757.28
2022-09-02T08:58:59.664Z,101752.66
2022-09-02T09:01:26.027Z,101759.94
2022-09-02T09:03:52.461Z,101760.00
2022-09-02T09:06:19.004Z,101757.41
2022-09-02T09:08:45.334Z,101755.16
2022-09-02T09:11:11.582Z,101748.00
2022-09-02T09:13:41.328Z,101753.50
2022-09-02T09:16:08.045Z,101749.63
2022-09-02T09:18:34.398Z,101745.75
2022-09-02T09:21:00.760Z,101740.41
2022-09-02T09:23:27.391Z,101745.75
2022-09-02T09:25:54.022Z,101731.53
2022-09-02T09:28:20.271Z,101732.84
2022-09-02T09:30:46.615Z,101737.44
2022-09-02T09:33:13.098Z,101736.47
2022-09-02T09:35:39.468Z,101734.28
2022-09-02T09:38:05.766Z,101737.72
2022-09-02T09:40:32.165Z,101725.50
2022-09-02T09:42:58.564Z,101722.78
2022-09-02T09:45:24.954Z,101720.75
2022-09-02T09:47:52.476Z,101719.63
2022-09-02T09:50:24.890Z,101718.53
2022-09-02T09:52:52.936Z,101722.84
2022-09-02T09:55:24.710Z,101720.28
2022-09-02T09:57:51.599Z,101719.97
2022-09-02T10:00:18.634Z,101710.47
2022-09-02T10:02:44.889Z,101713.19
2022-09-02T10:05:11.360Z,101712.50
2022-09-02T10:07:37.712Z,101708.03
2022-09-02T10:10:03.955Z,101712.78
2022-09-02T10:12:30.284Z,101708.47
2022-09-02T10:14:56.537Z,101710.59
2022-09-02T10:17:22.776Z,101704.41
2022-09-02T10:19:49.050Z,101703.84
2022-09-02T10:22:15.286Z,101698.38
2022-09-02T10:24:41.641Z,101698.38
2022-09-02T10:27:08.020Z,101706.69
2022-09-02T10:29:36.956Z,101698.84
2022-09-02T10:32:03.306Z,101693.50
2022-09-02T10:34:29.619Z,101688.25
2022-09-02T10:36:56.042Z,101703.97
2022-09-02T10:39:22.405Z,101694.50
2022-09-02T10:41:48.796Z,101691.84
2022-09-02T10:44:15.067Z,101693.88
2022-09-02T10:46:41.452Z,101694.31
2022-09-02T10:49:08.097Z,101694.47
2022-09-02T10:51:34.540Z,101692.69
2022-09-02T10:54:02.987Z,101680.88
2022-09-02T10:56:29.427Z,101688.50
2022-09-02T10:58:55.748Z,101686.41
2022-09-02T11:01:22.142Z,101681.84
2022-09-02T11:03:49.865Z,101688.31
2022-09-02T11:06:16.321Z,101677.81
2022-09-02T11:08:42.706Z,101683.31
2022-09-02T11:11:11.186Z,101683.03
2022-09-02T11:13:37.550Z,101681.16
2022-09-02T11:16:06.724Z,101678.88
2022-09-02T11:18:33.381Z,101673.69
2022-09-02T11:21:01.952Z,101675.91
2022-09-02T11:23:28.258Z,101669.78
2022-09-02T11:25:57.094Z,101670.06
2022-09-02T11:28:24.221Z,101665.38
2022-09-02T11:33:22.750Z,101670.94
2022-09-02T11:35:49.597Z,101668.63
2022-09-02T11:38:15.882Z,101663.84
2022-09-02T11:40:42.306Z,101662.22
2022-09-02T11:43:08.548Z,101662.84
2022-09-02T11:45:34.868Z,101670.13
2022-09-02T11:48:01.155Z,101658.69
2022-09-02T11:50:27.634Z,101664.88
2022-09-02T11:53:00.007Z,101664.78
2022-09-02T11:55:26.312Z,101657.75
2022-09-02T11:57:52.767Z,101654.69
2022-09-02T12:00:19.078Z,101660.00
2022-09-02T12:02:45.332Z,101661.19
2022-09-02T12:05:11.935Z,101652.25
2022-09-02T12:07:38.316Z,101647.78
2022-09-02T12:10:04.652Z,101642.59
2022-09-02T12:12:31.219Z,101651.59
2022-09-02T12:14:57.526Z,101637.63
2022-09-02T12:17:23.762Z,101633.47
2022-09-02T12:19:50.097Z,101630.81
2022-09-02T12:22:16.499Z,101623.63
2022-09-02T12:24:43.491Z,101627.09
2022-09-02T12:27:10.566Z,101618.59
2022-09-02T12:29:37.055Z,101618.13
2022-09-02T12:32:06.087Z,101624.03
2022-09-02T12:34:32.358Z,101616.13
2022-09-02T12:36:58.656Z,101615.22
2022-09-02T12:39:25.029Z,101609.38
2022-09-02T12:41:51.486Z,101606.34
2022-09-02T12:44:17.948Z,101600.56
2022-09-02T12:46:44.487Z,101602.03
2022-09-02T12:49:11.109Z,101608.53
2022-09-02T12:51:37.481Z,101606.66
2022-09-02T12:54:04.145Z,101602.56
2022-09-02T12:56:30.578Z,101598.56
2022-09-02T12:59:02.212Z,101586.06
2022-09-02T13:01:32.273Z,101592.06
2022-09-02T13:03:59.730Z,101580.03
2022-09-02T13:06:26.038Z,101587.94
2022-09-02T13:08:52.389Z,101574.78
2022-09-02T13:11:19.278Z,101574.34
2022-09-02T13:13:45.580Z,101565.78
2022-09-02T13:16:18.351Z,101569.16
2022-09-02T13:18:45.598Z,101569.53
2022-09-02T13:21:11.935Z,101570.06
2022-09-02T13:23:38.232Z,101580.06
2022-09-02T13:26:04.492Z,101578.09
2022-09-02T13:30:57.110Z,101573.13
2022-09-02T13:33:23.520Z,101577.97
2022-09-02T13:35:49.822Z,101575.72
2022-09-02T13:38:18.523Z,101577.44
2022-09-02T13:40:47.285Z,101567.91
2022-09-02T13:43:13.565Z,101564.06
2022-09-02T13:45:39.800Z,101555.47
2022-09-02T13:48:06.088Z,101556.31
2022-09-02T13:50:32.494Z,101547.25
2022-09-02T13:55:45.257Z,101537.66
2022-09-02T13:58:11.582Z,101538.50
2022-09-02T14:00:38.004Z,101529.47
2022-09-02T14:03:04.440Z,101537.44
2022-09-02T14:05:30.786Z,101534.13
2022-09-02T14:07:57.037Z,101538.34
2022-09-02T14:10:23.489Z,101535.00
2022-09-02T14:12:49.869Z,101516.16
2022-09-02T14:15:16.243Z,101517.25
2022-09-02T14:17:42.595Z,101517.59
2022-09-02T14:20:08.929Z,101516.50
2022-09-02T14:22:35.289Z,101517.09
2022-09-02T14:25:01.598Z,101518.03
2022-09-02T14:27:27.981Z,101511.28
2022-09-02T14:29:56.032Z,101513.50
2022-09-02T14:32:22.289Z,101512.50
2022-09-02T14:34:49.615Z,101511.22
2022-09-02T14:37:16.217Z,101513.31
2022-09-02T14:39:42.691Z,101509.81
2022-09-02T14:42:11.308Z,101518.03
2022-09-02T14:44:38.072Z,101510.66
2022-09-02T14:47:04.641Z,101506.78
2022-09-02T14:49:31.039Z,101501.44
2022-09-02T14:51:57.731Z,101499.16
2022-09-02T14:54:24.282Z,101500.81
2022-09-02T14:56:50.535Z,101501.78
2022-09-02T14:59:17.040Z,101499.53
2022-09-02T15:01:43.423Z,101499.91
2022-09-02T15:04:14.651Z,101504.00
2022-09-02T15:06:41.148Z,101511.53
2022-09-02T15:09:08.376Z,101498.06
2022-09-02T15:11:35.137Z,101499.34
2022-09-02T15:14:01.501Z,101487.34
2022-09-02T15:16:28.198Z,101494.34
2022-09-02T15:18:54.758Z,101493.59
2022-09-02T15:21:21.230Z,101498.91
2022-09-02T15:23:51.028Z,101505.69
2022-09-02T15:26:18.678Z,101504.28
2022-09-02T15:28:45.451Z,101501.44
2022-09-02T15:31:19.168Z,101496.03
2022-09-02T15:33:45.738Z,101500.69
2022-09-02T15:36:12.247Z,101495.53
2022-09-02T15:38:38.980Z,101489.66
2022-09-02T15:41:05.651Z,101488.88
2022-09-02T15:43:32.016Z,101487.59
2022-09-02T15:45:58.494Z,101484.13
2022-09-02T15:48:25.100Z,101480.69
2022-09-02T15:50:54.296Z,101490.00
2022-09-02T15:53:21.121Z,101489.03
2022-09-02T15:55:47.525Z,101481.47
2022-09-02T15:58:13.880Z,101484.03
2022-09-02T16:00:40.261Z,101491.75
2022-09-02T16:03:10.109Z,101485.00
2022-09-02T16:05:36.628Z,101482.75
2022-09-02T16:08:03.271Z,101476.53
2022-09-02T16:10:29.760Z,101476.41
2022-09-02T16:12:56.228Z,101472.00
2022-09-02T16:15:22.507Z,101476.66
2022-09-02T16:17:49.321Z,101474.25
2022-09-02T16:20:19.228Z,101466.28
2022-09-02T16:25:13.819Z,101470.06
2022-09-02T16:27:40.145Z,101465.91
2022-09-02T16:30:06.392Z,101474.50
2022-09-02T16:32:32.706Z,101468.25
2022-09-02T16:34:58.929Z,101463.72
2022-09-02T16:37:25.182Z,101460.44
2022-09-02T16:39:51.446Z,101468.16
2022-09-02T16:42:17.739Z,101457.50
2022-09-02T16:44:44.013Z,101461.38
2022-09-02T16:47:12.404Z,101454.44
2022-09-02T16:49:40.114Z,101453.28
2022-09-02T16:52:06.366Z,101456.47
2022-09-02T16:54:36.219Z,101456.50
2022-09-02T16:57:04.975Z,101448.16
2022-09-02T16:59:31.245Z,101445.59
2022-09-02T17:01:57.573Z,101449.22
2022-09-02T17:04:23.841Z,101455.28
2022-09-02T17:06:50.861Z,101456.13
2022-09-02T17:09:17.096Z,101458.44
2022-09-02T17:11:43.337Z,101455.00
2022-09-02T17:14:09.731Z,101457.06
2022-09-02T17:16:36.016Z,101454.63
2022-09-02T17:19:02.300Z,101456.31
2022-09-02T17:21:28.621Z,101459.22
2022-09-02T17:23:54.874Z,101454.50
2022-09-02T17:26:21.100Z,101454.03
2022-09-02T17:28:47.359Z,101458.72
2022-09-02T17:31:13.661Z,101465.00
2022-09-02T17:33:40.037Z,101463.78
2022-09-02T17:36:06.257Z,101464.81
2022-09-02T17:38:32.507Z,101466.97
2022-09-02T17:40:58.813Z,101456.31
2022-09-02T17:43:25.028Z,101470.25
2022-09-02T17:45:51.309Z,101464.31
2022-09-02T17:48:37.021Z,101465.53
2022-09-02T17:51:04.089Z,101460.28
2022-09-02T17:53:30.360Z,101460.16
2022-09-02T17:55:56.642Z,101465.38
2022-09-02T17:58:23.037Z,101463.59
2022-09-02T18:00:49.335Z,101457.69
2022-09-02T18:03:20.233Z,101457.56
2022-09-02T18:05:48.341Z,101465.13
2022-09-02T18:08:14.788Z,101459.00
2022-09-02T18:10:41.045Z,101465.34
2022-09-02T18:13:07.271Z,101470.00
2022-09-02T18:15:33.767Z,101463.97
2022-09-02T18:18:00.243Z,101464.69
2022-09-02T18:20:26.520Z,101467.44
2022-09-02T18:22:52.824Z,101468.00
2022-09-02T18:25:19.362Z,101472.03
2022-09-02T18:27:46.883Z,101471.78
2022-09-02T18:30:13.129Z,101479.53
2022-09-02T18:32:39.476Z,101469.91
2022-09-02T18:35:05.806Z,101479.53
2022-09-02T18:37:32.144Z,101478.38
2022-09-02T18:40:02.628Z,101481.56
2022-09-02T18:42:29.457Z,101483.00
2022-09-02T18:44:55.726Z,101483.28
2022-09-02T18:47:21.982Z,101483.72
2022-09-02T18:49:48.423Z,101483.00
2022-09-02T18:52:14.783Z,101488.88
2022-09-02T18:54:41.249Z,101483.16
2022-09-02T18:57:07.582Z,101492.63
2022-09-02T18:59:33.905Z,101492.03
2022-09-02T19:02:00.321Z,101499.66
2022-09-02T19:04:29.412Z,101496.34
2022-09-02T19:06:55.978Z,101503.22
2022-09-02T19:09:22.441Z,101501.78
2022-09-02T19:11:48.705Z,101499.56
2022-09-02T19:14:14.996Z,101498.25
2022-09-02T19:16:41.326Z,101499.81
2022-09-02T19:19:07.635Z,101497.38
2022-09-02T19:21:33.989Z,101499.50
2022-09-02T19:24:00.443Z,101501.81
2022-09-02T19:26:26.922Z,101497.75
2022-09-02T19:28:53.209Z,101507.22
2022-09-02T19:31:19.569Z,101504.16
2022-09-02T19:33:45.971Z,101498.97
2022-09-02T19:36:12.792Z,101510.16
2022-09-02T19:38:39.144Z,101505.97
2022-09-02T19:41:05.694Z,101507.09
2022-09-02T19:43:32.101Z,101510.13
2022-09-02T19:45:59.964Z,101514.09
2022-09-02T19:48:27.357Z,101518.13
2022-09-02T19:50:53.640Z,101519.41
2022-09-02T19:53:19.858Z,101519.63
2022-09-02T19:55:46.179Z,101523.66
2022-09-02T19:58:12.537Z,101517.59
2022-09-02T20:00:38.918Z,101525.91
2022-09-02T20:03:05.450Z,101517.16
2022-09-02T20:05:32.799Z,101518.53
2022-09-02T20:07:59.190Z,101515.34
2022-09-02T20:10:28.257Z,101521.06
2022-09-02T20:12:56.325Z,101516.72
2022-09-02T20:15:23.023Z,101516.84
2022-09-02T20:17:49.457Z,101518.94
2022-09-02T20:20:15.894Z,101520.22
2022-09-02T20:22:42.209Z,101528.53
2022-09-02T20:25:08.485Z,101523.31
2022-09-02T20:27:34.803Z,101524.47
2022-09-02T20:30:01.236Z,101524.63
2022-09-02T20:32:27.505Z,101529.31
2022-09-02T20:34:53.845Z,101520.53
2022-09-02T20:37:20.191Z,101527.25
2022-09-02T20:39:46.569Z,101531.09
2022-09-02T20:42:12.934Z,101530.34
2022-09-02T20:44:39.242Z,101531.63
2022-09-02T20:47:05.602Z,101527.16
2022-09-02T20:49:31.929Z,101527.44
2022-09-02T20:51:58.384Z,101538.31
2022-09-02T20:54:24.609Z,101537.69
2022-09-02T20:56:51.033Z,101538.81
2022-09-02T20:59:17.462Z,101531.03
2022-09-02T21:01:46.010Z,101541.34
2022-09-02T21:04:12.499Z,101539.88
2022-09-02T21:06:38.881Z,101545.56
2022-09-02T21:09:05.175Z,101546.56
2022-09-02T21:11:31.792Z,101554.84
2022-09-02T21:13:58.263Z,101548.06
2022-09-02T21:16:24.735Z,101546.44
2022-09-02T21:18:51.279Z,101547.56
2022-09-02T21:21:17.550Z,101547.09
2022-09-02T21:23:43.920Z,101542.88
2022-09-02T21:26:10.325Z,101546.97
2022-09-02T21:28:36.786Z,101546.34
2022-09-02T21:31:03.131Z,101550.34
2022-09-02T21:33:29.436Z,101547.09
2022-09-02T21:35:55.964Z,101547.38
2022-09-02T21:38:22.294Z,101546.59
2022-09-02T21:40:48.643Z,101550.47
2022-09-02T21:43:14.998Z,101546.97
2022-09-02T21:45:41.342Z,101550.81
2022-09-02T21:48:07.638Z,101549.31
2022-09-02T21:50:33.948Z,101554.00
2022-09-02T21:53:00.399Z,101551.66
2022-09-02T21:55:26.772Z,101544.84
2022-09-02T21:57:54.672Z,101539.03
2022-09-02T22:00:21.893Z,101546.59
2022-09-02T22:02:48.390Z,101534.34
2022-09-02T22:05:14.870Z,101544.94
2022-09-02T22:07:41.233Z,101542.47
2022-09-02T22:10:07.571Z,101537.41
2022-09-02T22:12:34.058Z,101541.97
2022-09-02T22:15:00.363Z,101537.66
2022-09-02T22:17:26.618Z,101540.59
2022-09-02T22:19:52.867Z,101543.56
2022-09-02T22:22:19.181Z,101548.38
2022-09-02T22:24:45.818Z,101543.19
2022-09-02T22:27:12.156Z,101544.41
2022-09-02T22:29:38.456Z,101549.31
2022-09-02T22:32:04.795Z,101543.28
2022-09-02T22:34:31.101Z,101544.25
2022-09-02T22:36:57.353Z,101554.47
2022-09-02T22:39:23.826Z,101552.25
2022-09-02T22:41:50.241Z,101545.06
2022-09-02T22:44:16.559Z,101549.78
2022-09-02T22:46:43.081Z,101547.28
2022-09-02T22:49:09.401Z,101547.41
2022-09-02T22:51:35.662Z,101549.47
2022-09-02T22:54:02.129Z,101548.75
2022-09-02T22:56:29.991Z,101547.13
2022-09-02T22:58:56.425Z,101550.09
2022-09-02T23:01:22.777Z,101546.72
2022-09-02T23:03:49.436Z,101545.13
2022-09-02T23:06:15.827Z,101539.03
2022-09-02T23:08:42.105Z,101543.84
2022-09-02T23:11:08.574Z,101543.22
2022-09-02T23:13:34.817Z,101534.31
2022-09-02T23:16:01.276Z,101537.25
2022-09-02T23:18:27.626Z,101534.72
2022-09-02T23:20:53.912Z,101536.72
2022-09-02T23:23:20.185Z,101537.81
2022-09-02T23:25:46.530Z,101527.91
2022-09-02T23:28:12.825Z,101521.00
2022-09-02T23:30:39.182Z,101528.38
2022-09-02T23:33:05.586Z,101525.66
2022-09-02T23:35:31.929Z,101523.19
2022-09-02T23:37:58.193Z,101524.16
2022-09-02T23:40:24.545Z,101514.28
2022-09-02T23:42:50.874Z,101518.97
2022-09-02T23:45:17.267Z,101517.34
2022-09-02T23:47:43.518Z,101514.75
2022-09-02T23:50:09.870Z,101514.97
2022-09-02T23:52:36.176Z,101513.34
2022-09-02T23:55:02.509Z,101513.59
2022-09-02T23:57:28.861Z,101511.97
2022-09-02T23:59:55.392Z,101511.09
